Time;durP1;ratioP1;P1;durP2;ratioP2;P2;SDS_P1;SDS_P2;PMS_P1;PMS_P2;Temp;Humidity;BMP_temperature;BMP_pressure;BME280_temperature;BME280_humidity;BME280_pressure;Samples;Min_cycle;Max_cycle;Signal;HPM_P1;HPM_P2
2023/10/10 00:01:42;;;;;;;;;;;;;;;;;;109388;1251;58981;-79
2023/10/10 00:04:10;;;;;;;;;;;;;;;;;;109192;1253;59802;-79
2023/10/10 00:06:38;;;;;;;;;;;;;;;;;;109217;1252;59057;-79
2023/10/10 00:09:05;;;;;;;;;;;;;;;;;;109209;1257;59281;-79
2023/10/10 00:11:32;;;;;;;;;;;;;;;;;;109234;1253;62991;-79
2023/10/10 00:14:05;;;;;;;;;;;;;;;;;;109221;1252;59369;-79
2023/10/10 00:16:38;;;;;;;;;;;;;;;;;;109174;1252;59767;-79
2023/10/10 00:21:50;;;;;;;;;;;;;;;;;;109270;1252;59384;-79
2023/10/10 00:24:20;;;;;;;;;;;;;;;;;;109250;1252;61665;-79
2023/10/10 00:26:50;;;;;;;;;;;;;;;;;;109224;1252;59629;-79
2023/10/10 00:29:23;;;;;;;;;;;;;;;;;;109202;1252;59622;-79
2023/10/10 00:32:00;;;;;;;;;;;;;;;;;;109219;1252;59118;-79
2023/10/10 00:34:33;;;;;;;;;;;;;;;;;;109240;1252;59048;-79
2023/10/10 00:37:07;;;;;;;;;;;;;;;;;;109255;1252;63075;-79
2023/10/10 00:39:35;;;;;;;;;;;;;;;;;;109242;1252;59180;-79
2023/10/10 00:42:05;;;;;;;;;;;;;;;;;;109205;1252;59467;-79
2023/10/10 00:44:33;;;;;;;;;;;;;;;;;;109217;1252;59033;-80
2023/10/10 00:47:03;;;;;;;;;;;;;;;;;;109147;1253;59101;-80
2023/10/10 00:49:31;;;;;;;;;;;;;;;;;;109177;1254;60831;-79
2023/10/10 00:52:00;;;;;;;;;;;;;;;;;;109178;1254;59082;-79
2023/10/10 00:54:30;;;;;;;;;;;;;;;;;;109150;1254;60761;-79
2023/10/10 00:56:57;;;;;;;;;;;;;;;;;;109201;1254;59234;-79
2023/10/10 00:59:28;;;;;;;;;;;;;;;;;;109203;1254;59019;-79
2023/10/10 01:01:54;;;;;;;;;;;;;;;;;;109170;1255;61952;-79
2023/10/10 01:04:38;;;;;;;;;;;;;;;;;;109204;1252;58893;-79
2023/10/10 01:07:07;;;;;;;;;;;;;;;;;;109219;1252;59515;-79
2023/10/10 01:09:34;;;;;;;;;;;;;;;;;;109218;1252;58987;-79
2023/10/10 01:12:04;;;;;;;;;;;;;;;;;;109099;1252;169364;-79
2023/10/10 01:14:30;;;;;;;;;;;;;;;;;;109276;1252;61970;-80
2023/10/10 01:17:00;;;;;;;;;;;;;;;;;;109275;1252;59374;-79
2023/10/10 01:19:30;;;;;;;;;;;;;;;;;;109208;1252;60429;-79
2023/10/10 01:21:57;;;;;;;;;;;;;;;;;;109239;1252;59035;-79
2023/10/10 01:24:24;;;;;;;;;;;;;;;;;;109223;1253;58968;-79
2023/10/10 01:26:52;;;;;;;;;;;;;;;;;;109211;1252;59950;-79
2023/10/10 01:31:54;;;;;;;;;;;;;;;;;;109231;1252;59917;-79
2023/10/10 01:34:43;;;;;;;;;;;;;;;;;;109225;1252;58987;-79
2023/10/10 01:37:14;;;;;;;;;;;;;;;;;;109251;1252;59411;-79
2023/10/10 01:39:41;;;;;;;;;;;;;;;;;;109299;1252;60612;-79
2023/10/10 01:42:11;;;;;;;;;;;;;;;;;;109252;1252;59694;-79
2023/10/10 01:44:38;;;;;;;;;;;;;;;;;;109226;1252;59134;-79
2023/10/10 01:47:09;;;;;;;;;;;;;;;;;;109210;1252;59684;-79
2023/10/10 01:49:36;;;;;;;;;;;;;;;;;;109282;1253;59374;-79
2023/10/10 01:52:02;;;;;;;;;;;;;;;;;;109250;1252;59568;-79
2023/10/10 01:54:39;;;;;;;;;;;;;;;;;;109276;1252;59024;-79
2023/10/10 01:57:07;;;;;;;;;;;;;;;;;;109221;1252;60245;-79
2023/10/10 01:59:41;;;;;;;;;;;;;;;;;;109203;1252;59057;-79
2023/10/10 02:02:11;;;;;;;;;;;;;;;;;;109237;1252;58964;-79
2023/10/10 02:04:39;;;;;;;;;;;;;;;;;;109240;1252;61985;-80
2023/10/10 02:07:13;;;;;;;;;;;;;;;;;;109158;1253;59731;-79
2023/10/10 02:09:40;;;;;;;;;;;;;;;;;;109235;1252;59538;-79
2023/10/10 02:12:15;;;;;;;;;;;;;;;;;;109258;1253;59336;-79
2023/10/10 02:14:45;;;;;;;;;;;;;;;;;;109262;1252;58971;-79
2023/10/10 02:17:25;;;;;;;;;;;;;;;;;;109291;1252;62956;-79
2023/10/10 02:19:59;;;;;;;;;;;;;;;;;;109268;1253;60250;-79
2023/10/10 02:22:47;;;;;;;;;;;;;;;;;;109259;1253;59802;-79
2023/10/10 02:30:45;;;;;;;;;;;;;;;;;;109266;1253;63009;-79
2023/10/10 02:33:14;;;;;;;;;;;;;;;;;;109273;1253;59609;-79
2023/10/10 02:35:54;;;;;;;;;;;;;;;;;;109226;1253;59297;-79
2023/10/10 02:38:22;;;;;;;;;;;;;;;;;;109235;1252;59076;-80
2023/10/10 02:40:53;;;;;;;;;;;;;;;;;;109208;1252;58982;-79
2023/10/10 02:43:33;;;;;;;;;;;;;;;;;;109213;1253;61965;-79
2023/10/10 02:45:59;;;;;;;;;;;;;;;;;;109256;1252;59674;-79
2023/10/10 02:48:30;;;;;;;;;;;;;;;;;;109268;1253;59443;-79
2023/10/10 02:51:02;;;;;;;;;;;;;;;;;;109203;1253;59594;-79
2023/10/10 02:53:32;;;;;;;;;;;;;;;;;;109241;1253;59489;-79
2023/10/10 02:56:01;;;;;;;;;;;;;;;;;;109226;1253;60577;-79
2023/10/10 02:58:37;;;;;;;;;;;;;;;;;;109241;1252;59280;-79
2023/10/10 03:01:09;;;;;;;;;;;;;;;;;;109228;1252;59586;-79
2023/10/10 03:03:40;;;;;;;;;;;;;;;;;;109260;1253;58990;-79
2023/10/10 03:06:10;;;;;;;;;;;;;;;;;;109251;1252;59414;-79
2023/10/10 03:08:51;;;;;;;;;;;;;;;;;;109242;1253;62636;-79
2023/10/10 03:11:35;;;;;;;;;;;;;;;;;;109286;1253;59291;-79
2023/10/10 03:14:07;;;;;;;;;;;;;;;;;;109213;1252;59783;-79
2023/10/10 03:16:59;;;;;;;;;;;;;;;;;;109227;1256;59031;-79
2023/10/10 03:19:27;;;;;;;;;;;;;;;;;;109220;1253;59709;-79
2023/10/10 03:22:19;;;;;;;;;;;;;;;;;;109275;1252;60897;-79
2023/10/10 03:30:49;;;;;;;;;;;;;;;;;;109150;1253;59211;-79
2023/10/10 03:33:09;;;;;;;;;;;;;;;;;;109185;1255;58992;-79
2023/10/10 03:35:52;;;;;;;;;;;;;;;;;;109217;1253;62948;-79
2023/10/10 05:25:31;;;;;;;;;;;;;;;;;;109198;1253;61803;-79
2023/10/10 05:28:00;;;;;;;;;;;;;;;;;;109233;1253;59256;-79
2023/10/10 05:30:27;;;;;;;;;;;;;;;;;;109255;1253;59719;-79
2023/10/10 05:33:02;;;;;;;;;;;;;;;;;;109217;1253;59726;-79
2023/10/10 05:35:29;;;;;;;;;;;;;;;;;;109255;1251;58929;-79
2023/10/10 05:37:55;;;;;;;;;;;;;;;;;;109196;1253;59060;-79
2023/10/10 05:40:24;;;;;;;;;;;;;;;;;;109181;1252;59595;-79
2023/10/10 05:42:51;;;;;;;;;;;;;;;;;;109175;1253;59959;-79
2023/10/10 05:45:18;;;;;;;;;;;;;;;;;;109181;1252;59391;-79
2023/10/10 05:47:44;;;;;;;;;;;;;;;;;;109264;1254;59678;-79
2023/10/10 05:50:11;;;;;;;;;;;;;;;;;;109327;1251;59747;-79
2023/10/10 05:52:40;;;;;;;;;;;;;;;;;;109200;1253;59064;-79
2023/10/10 05:55:07;;;;;;;;;;;;;;;;;;109160;1253;59461;-79
2023/10/10 05:57:34;;;;;;;;;;;;;;;;;;109174;1253;59315;-79
2023/10/10 06:00:00;;;;;;;;;;;;;;;;;;109196;1253;59858;-79
2023/10/10 06:02:27;;;;;;;;;;;;;;;;;;109193;1253;60567;-79
2023/10/10 06:04:53;;;;;;;;;;;;;;;;;;109227;1253;59201;-79
2023/10/10 06:07:20;;;;;;;;;;;;;;;;;;109114;1253;59131;-79
2023/10/10 06:09:51;;;;;;;;;;;;;;;;;;109185;1254;59074;-79
2023/10/10 06:12:19;;;;;;;;;;;;;;;;;;109200;1253;59680;-79
2023/10/10 06:14:46;;;;;;;;;;;;;;;;;;109115;1252;63875;-79
2023/10/10 06:17:13;;;;;;;;;;;;;;;;;;109148;1253;59727;-79
2023/10/10 06:19:39;;;;;;;;;;;;;;;;;;109148;1253;59212;-79
2023/10/10 06:22:08;;;;;;;;;;;;;;;;;;109092;1252;59688;-80
2023/10/10 06:24:35;;;;;;;;;;;;;;;;;;109107;1253;59243;-79
2023/10/10 06:27:02;;;;;;;;;;;;;;;;;;109156;1253;62567;-79
2023/10/10 06:29:34;;;;;;;;;;;;;;;;;;109206;1253;60203;-79
2023/10/10 06:32:00;;;;;;;;;;;;;;;;;;109129;1253;60781;-79
2023/10/10 06:34:34;;;;;;;;;;;;;;;;;;109090;1253;61880;-79
2023/10/10 06:37:07;;;;;;;;;;;;;;;;;;109145;1253;59116;-79
2023/10/10 06:39:34;;;;;;;;;;;;;;;;;;109271;1251;62591;-79
2023/10/10 06:42:03;;;;;;;;;;;;;;;;;;109106;1253;59746;-79
2023/10/10 06:44:33;;;;;;;;;;;;;;;;;;109145;1253;60887;-79
2023/10/10 06:47:00;;;;;;;;;;;;;;;;;;109140;1252;59106;-79
2023/10/10 06:49:43;;;;;;;;;;;;;;;;;;109115;1253;59617;-79
2023/10/10 06:52:09;;;;;;;;;;;;;;;;;;109127;1256;61674;-79
2023/10/10 06:54:35;;;;;;;;;;;;;;;;;;109127;1253;59122;-79
2023/10/10 06:59:28;;;;;;;;;;;;;;;;;;109097;1256;59106;-79
2023/10/10 07:01:57;;;;;;;;;;;;;;;;;;109112;1253;59467;-79
2023/10/10 07:04:23;;;;;;;;;;;;;;;;;;109133;1252;61948;-79
2023/10/10 07:06:51;;;;;;;;;;;;;;;;;;109149;1253;59722;-80
2023/10/10 07:09:27;;;;;;;;;;;;;;;;;;109033;1253;60612;-80
2023/10/10 07:11:54;;;;;;;;;;;;;;;;;;109133;1252;59675;-80
2023/10/10 07:14:20;;;;;;;;;;;;;;;;;;109150;1253;59640;-80
2023/10/10 07:16:47;;;;;;;;;;;;;;;;;;109122;1253;62531;-79
2023/10/10 07:19:19;;;;;;;;;;;;;;;;;;109164;1253;59469;-79
2023/10/10 07:21:46;;;;;;;;;;;;;;;;;;109129;1254;59582;-79
2023/10/10 07:24:16;;;;;;;;;;;;;;;;;;109099;1254;59804;-79
2023/10/10 07:26:43;;;;;;;;;;;;;;;;;;109186;1253;59262;-80
2023/10/10 07:29:29;;;;;;;;;;;;;;;;;;109156;1253;59368;-79
2023/10/10 07:32:06;;;;;;;;;;;;;;;;;;109128;1253;59364;-79
2023/10/10 07:34:37;;;;;;;;;;;;;;;;;;109105;1253;60558;-79
2023/10/10 07:37:08;;;;;;;;;;;;;;;;;;109181;1254;59769;-80
2023/10/10 07:39:36;;;;;;;;;;;;;;;;;;109193;1254;59053;-79
2023/10/10 07:42:02;;;;;;;;;;;;;;;;;;109129;1253;61988;-80
2023/10/10 07:44:30;;;;;;;;;;;;;;;;;;109107;1252;59331;-80
2023/10/10 07:47:19;;;;;;;;;;;;;;;;;;109137;1255;59765;-79
2023/10/10 07:49:50;;;;;;;;;;;;;;;;;;109156;1253;59256;-79
2023/10/10 07:52:20;;;;;;;;;;;;;;;;;;109177;1254;59991;-79
2023/10/10 07:54:46;;;;;;;;;;;;;;;;;;109306;1253;60409;-80
2023/10/10 07:57:22;;;;;;;;;;;;;;;;;;109165;1253;59501;-79
2023/10/10 07:59:48;;;;;;;;;;;;;;;;;;109142;1255;59493;-79
2023/10/10 08:05:13;;;;;;;;;;;;;;;;;;108974;1254;59022;-80
2023/10/10 08:07:39;;;;;;;;;;;;;;;;;;109204;1254;59935;-80
2023/10/10 08:10:13;;;;;;;;;;;;;;;;;;109142;1253;59673;-79
2023/10/10 08:12:39;;;;;;;;;;;;;;;;;;109100;1253;60009;-80
2023/10/10 08:15:19;;;;;;;;;;;;;;;;;;109057;1254;59320;-80
2023/10/10 08:17:52;;;;;;;;;;;;;;;;;;109231;1257;59808;-80
2023/10/10 08:21:08;;;;;;;;;;;;;;;;;;109247;1252;61603;-80
2023/10/10 08:23:24;;;;;;;;;;;;;;;;;;109169;1253;59716;-79
2023/10/10 08:25:50;;;;;;;;;;;;;;;;;;109168;1253;59764;-79
2023/10/10 08:28:17;;;;;;;;;;;;;;;;;;109184;1257;59827;-79
2023/10/10 08:30:43;;;;;;;;;;;;;;;;;;109193;1254;60363;-80
2023/10/10 08:33:09;;;;;;;;;;;;;;;;;;109179;1253;59163;-79
2023/10/10 08:35:38;;;;;;;;;;;;;;;;;;109166;1253;59234;-80
2023/10/10 08:38:05;;;;;;;;;;;;;;;;;;109189;1253;59045;-80
2023/10/10 08:40:31;;;;;;;;;;;;;;;;;;109233;1253;59145;-79
2023/10/10 08:42:58;;;;;;;;;;;;;;;;;;109342;1253;59406;-80
2023/10/10 08:45:24;;;;;;;;;;;;;;;;;;109196;1254;59669;-80
2023/10/10 08:47:52;;;;;;;;;;;;;;;;;;109215;1253;59752;-80
2023/10/10 08:50:18;;;;;;;;;;;;;;;;;;109192;1252;60608;-80
2023/10/10 08:52:45;;;;;;;;;;;;;;;;;;109231;1254;59612;-80
2023/10/10 08:55:12;;;;;;;;;;;;;;;;;;109161;1253;59022;-80
2023/10/10 08:57:38;;;;;;;;;;;;;;;;;;109199;1254;59577;-80
2023/10/10 09:00:11;;;;;;;;;;;;;;;;;;109239;1252;59491;-80
2023/10/10 09:02:39;;;;;;;;;;;;;;;;;;109183;1257;60652;-80
2023/10/10 09:05:06;;;;;;;;;;;;;;;;;;109193;1252;59060;-80
2023/10/10 09:07:34;;;;;;;;;;;;;;;;;;109171;1254;59586;-79
2023/10/10 09:10:16;;;;;;;;;;;;;;;;;;109185;1253;61168;-80
2023/10/10 09:13:01;;;;;;;;;;;;;;;;;;109154;1254;59731;-80
2023/10/10 09:15:27;;;;;;;;;;;;;;;;;;109140;1252;59708;-80
2023/10/10 09:17:55;;;;;;;;;;;;;;;;;;109186;1254;59700;-80
2023/10/10 09:20:28;;;;;;;;;;;;;;;;;;109184;1253;59185;-80
2023/10/10 09:22:56;;;;;;;;;;;;;;;;;;109188;1253;62972;-80
2023/10/10 09:25:26;;;;;;;;;;;;;;;;;;109131;1254;59089;-80
2023/10/10 09:27:56;;;;;;;;;;;;;;;;;;109172;1254;59066;-80
2023/10/10 09:30:30;;;;;;;;;;;;;;;;;;109175;1253;59278;-80
2023/10/10 09:33:00;;;;;;;;;;;;;;;;;;109166;1253;59127;-80
2023/10/10 09:35:28;;;;;;;;;;;;;;;;;;109162;1252;62813;-80
2023/10/10 09:37:57;;;;;;;;;;;;;;;;;;109213;1254;59018;-80
2023/10/10 09:40:24;;;;;;;;;;;;;;;;;;109403;1252;60558;-80
2023/10/10 09:43:03;;;;;;;;;;;;;;;;;;109434;1253;59043;-81
2023/10/10 09:45:52;;;;;;;;;;;;;;;;;;109151;1254;59604;-80
2023/10/10 09:51:15;;;;;;;;;;;;;;;;;;109039;1254;59777;-80
2023/10/10 09:53:46;;;;;;;;;;;;;;;;;;109181;1251;59514;-80
2023/10/10 09:56:13;;;;;;;;;;;;;;;;;;109197;1254;59063;-80
2023/10/10 09:58:43;;;;;;;;;;;;;;;;;;109241;1253;59034;-80
2023/10/10 10:01:18;;;;;;;;;;;;;;;;;;109237;1253;61959;-80
2023/10/10 10:03:54;;;;;;;;;;;;;;;;;;109307;1253;59032;-80
2023/10/10 10:08:47;;;;;;;;;;;;;;;;;;109295;1251;59092;-81
2023/10/10 10:11:14;;;;;;;;;;;;;;;;;;109211;1254;59108;-80
2023/10/10 10:13:40;;;;;;;;;;;;;;;;;;109199;1254;59397;-80
2023/10/10 10:16:09;;;;;;;;;;;;;;;;;;109222;1253;59272;-80
2023/10/10 10:18:45;;;;;;;;;;;;;;;;;;109240;1252;59011;-80
2023/10/10 10:21:16;;;;;;;;;;;;;;;;;;109254;1253;59030;-80
2023/10/10 10:23:46;;;;;;;;;;;;;;;;;;109167;1251;58969;-80
2023/10/10 10:26:12;;;;;;;;;;;;;;;;;;109204;1254;61633;-80
2023/10/10 10:28:45;;;;;;;;;;;;;;;;;;109254;1253;59419;-80
2023/10/10 10:31:16;;;;;;;;;;;;;;;;;;109206;1253;59120;-80
2023/10/10 10:33:52;;;;;;;;;;;;;;;;;;109251;1253;59008;-80
2023/10/10 10:36:19;;;;;;;;;;;;;;;;;;109202;1254;59727;-80
2023/10/10 10:39:18;;;;;;;;;;;;;;;;;;109266;1252;62983;-80
2023/10/10 10:41:42;;;;;;;;;;;;;;;;;;109227;1253;59397;-80
2023/10/10 10:44:09;;;;;;;;;;;;;;;;;;109299;1251;59764;-80
2023/10/10 10:46:35;;;;;;;;;;;;;;;;;;109241;1253;59898;-80
2023/10/10 10:49:05;;;;;;;;;;;;;;;;;;109228;1254;59469;-80
2023/10/10 10:51:41;;;;;;;;;;;;;;;;;;109209;1253;59368;-80
2023/10/10 10:54:08;;;;;;;;;;;;;;;;;;109219;1254;59307;-80
2023/10/10 10:59:13;;;;;;;;;;;;;;;;;;109243;1253;59664;-80
2023/10/10 11:01:42;;;;;;;;;;;;;;;;;;109268;1252;59194;-80
2023/10/10 11:04:14;;;;;;;;;;;;;;;;;;109252;1253;60877;-80
2023/10/10 11:06:40;;;;;;;;;;;;;;;;;;109260;1254;59039;-80
2023/10/10 11:09:09;;;;;;;;;;;;;;;;;;109143;1254;59708;-80
2023/10/10 11:14:04;;;;;;;;;;;;;;;;;;109208;1252;58954;-80
2023/10/10 11:16:45;;;;;;;;;;;;;;;;;;109223;1252;61519;-80
2023/10/10 11:19:38;;;;;;;;;;;;;;;;;;109187;1254;59521;-80
2023/10/10 11:22:05;;;;;;;;;;;;;;;;;;109200;1251;60421;-80
2023/10/10 11:24:31;;;;;;;;;;;;;;;;;;109168;1252;59120;-80
2023/10/10 11:29:34;;;;;;;;;;;;;;;;;;109197;1254;62743;-80
2023/10/10 11:32:07;;;;;;;;;;;;;;;;;;109247;1253;59590;-80
2023/10/10 11:34:44;;;;;;;;;;;;;;;;;;109245;1251;59838;-80
2023/10/10 11:37:12;;;;;;;;;;;;;;;;;;109253;1254;59566;-80
2023/10/10 11:39:46;;;;;;;;;;;;;;;;;;109302;1253;59093;-80
2023/10/10 11:42:13;;;;;;;;;;;;;;;;;;109201;1251;61713;-80
2023/10/10 11:44:41;;;;;;;;;;;;;;;;;;109245;1254;59139;-80
2023/10/10 11:47:21;;;;;;;;;;;;;;;;;;109245;1252;59700;-80
2023/10/10 11:49:48;;;;;;;;;;;;;;;;;;109240;1251;58985;-80
2023/10/10 11:52:15;;;;;;;;;;;;;;;;;;109230;1252;59103;-80
2023/10/10 11:54:44;;;;;;;;;;;;;;;;;;109211;1252;60777;-80
2023/10/10 11:57:15;;;;;;;;;;;;;;;;;;109167;1252;59384;-80
2023/10/10 11:59:44;;;;;;;;;;;;;;;;;;109199;1254;59647;-81
2023/10/10 12:02:16;;;;;;;;;;;;;;;;;;109308;1251;59858;-80
2023/10/10 12:04:44;;;;;;;;;;;;;;;;;;109294;1253;59004;-80
2023/10/10 12:07:13;;;;;;;;;;;;;;;;;;109284;1251;60378;-80
2023/10/10 12:09:44;;;;;;;;;;;;;;;;;;109237;1252;59075;-80
2023/10/10 12:12:11;;;;;;;;;;;;;;;;;;109151;1253;61692;-80
2023/10/10 12:14:38;;;;;;;;;;;;;;;;;;109131;1253;59380;-80
2023/10/10 12:17:05;;;;;;;;;;;;;;;;;;109192;1251;58850;-80
2023/10/10 12:19:36;;;;;;;;;;;;;;;;;;109205;1251;62579;-78
2023/10/10 12:22:07;;;;;;;;;;;;;;;;;;109156;1252;59004;-78
2023/10/10 12:24:33;;;;;;;;;;;;;;;;;;109073;1253;60208;-78
2023/10/10 12:27:01;;;;;;;;;;;;;;;;;;109028;1254;59784;-79
2023/10/10 12:29:30;;;;;;;;;;;;;;;;;;109089;1253;60404;-78
2023/10/10 12:31:56;;;;;;;;;;;;;;;;;;109074;1253;60716;-78
2023/10/10 12:34:23;;;;;;;;;;;;;;;;;;109127;1252;59106;-78
2023/10/10 12:36:49;;;;;;;;;;;;;;;;;;109085;1253;59703;-78
2023/10/10 12:39:15;;;;;;;;;;;;;;;;;;109136;1251;59635;-78
2023/10/10 12:41:48;;;;;;;;;;;;;;;;;;109134;1254;59334;-78
2023/10/10 12:44:14;;;;;;;;;;;;;;;;;;109089;1254;61851;-79
2023/10/10 12:46:40;;;;;;;;;;;;;;;;;;109107;1253;59801;-79
2023/10/10 12:49:11;;;;;;;;;;;;;;;;;;109096;1252;59692;-80
2023/10/10 12:51:38;;;;;;;;;;;;;;;;;;109134;1252;59117;-80
2023/10/10 12:54:09;;;;;;;;;;;;;;;;;;109187;1252;59265;-80
2023/10/10 12:56:48;;;;;;;;;;;;;;;;;;109221;1252;62554;-80
2023/10/10 12:59:15;;;;;;;;;;;;;;;;;;109210;1252;59752;-80
2023/10/10 13:01:42;;;;;;;;;;;;;;;;;;109309;1251;59266;-80
2023/10/10 13:04:11;;;;;;;;;;;;;;;;;;109185;1252;59153;-81
2023/10/10 13:06:39;;;;;;;;;;;;;;;;;;109250;1252;58978;-80
2023/10/10 13:09:08;;;;;;;;;;;;;;;;;;109211;1251;61583;-80
2023/10/10 13:11:43;;;;;;;;;;;;;;;;;;109161;1251;147824;-80
2023/10/10 13:14:14;;;;;;;;;;;;;;;;;;109149;1253;59484;-80
2023/10/10 13:19:11;;;;;;;;;;;;;;;;;;109275;1252;59190;-80
2023/10/10 13:21:37;;;;;;;;;;;;;;;;;;109194;1251;60407;-80
2023/10/10 13:24:09;;;;;;;;;;;;;;;;;;109211;1252;59285;-80
2023/10/10 13:26:38;;;;;;;;;;;;;;;;;;109187;1252;59624;-80
2023/10/10 13:29:05;;;;;;;;;;;;;;;;;;109128;1253;59052;-81
2023/10/10 13:31:31;;;;;;;;;;;;;;;;;;109195;1252;59112;-80
2023/10/10 13:33:58;;;;;;;;;;;;;;;;;;109216;1252;59769;-80
2023/10/10 13:36:24;;;;;;;;;;;;;;;;;;109194;1252;59017;-80
2023/10/10 13:38:51;;;;;;;;;;;;;;;;;;109313;1253;59544;-80
2023/10/10 13:41:18;;;;;;;;;;;;;;;;;;109273;1251;59731;-80
2023/10/10 13:43:46;;;;;;;;;;;;;;;;;;109225;1251;59689;-80
2023/10/10 13:46:13;;;;;;;;;;;;;;;;;;109194;1252;60465;-80
2023/10/10 13:48:39;;;;;;;;;;;;;;;;;;109220;1252;59771;-80
2023/10/10 13:51:07;;;;;;;;;;;;;;;;;;109216;1252;59012;-80
2023/10/10 13:53:33;;;;;;;;;;;;;;;;;;109169;1254;59075;-81
2023/10/10 13:56:00;;;;;;;;;;;;;;;;;;109241;1252;59118;-80
2023/10/10 13:58:26;;;;;;;;;;;;;;;;;;109218;1256;62984;-80
2023/10/10 14:00:55;;;;;;;;;;;;;;;;;;109197;1252;59869;-80
2023/10/10 14:03:35;;;;;;;;;;;;;;;;;;109161;1253;59832;-80
2023/10/10 14:06:07;;;;;;;;;;;;;;;;;;109140;1253;59299;-80
2023/10/10 14:08:34;;;;;;;;;;;;;;;;;;109215;1252;58989;-80
2023/10/10 14:11:00;;;;;;;;;;;;;;;;;;109219;1252;59591;-81
2023/10/10 14:13:27;;;;;;;;;;;;;;;;;;109242;1252;59523;-80
2023/10/10 14:15:56;;;;;;;;;;;;;;;;;;109210;1252;59039;-80
2023/10/10 14:18:23;;;;;;;;;;;;;;;;;;109167;1254;59726;-80
2023/10/10 14:20:50;;;;;;;;;;;;;;;;;;109182;1256;59598;-80
2023/10/10 14:23:16;;;;;;;;;;;;;;;;;;109196;1252;61773;-80
2023/10/10 14:25:47;;;;;;;;;;;;;;;;;;109217;1253;59406;-80
2023/10/10 14:28:16;;;;;;;;;;;;;;;;;;109259;1252;60160;-80
2023/10/10 14:30:43;;;;;;;;;;;;;;;;;;109239;1252;59734;-80
2023/10/10 14:33:09;;;;;;;;;;;;;;;;;;109250;1253;59465;-80
2023/10/10 14:35:35;;;;;;;;;;;;;;;;;;109256;1252;58973;-80
2023/10/10 14:38:02;;;;;;;;;;;;;;;;;;109215;1252;59054;-80
2023/10/10 14:40:28;;;;;;;;;;;;;;;;;;109236;1252;59306;-80
2023/10/10 14:42:55;;;;;;;;;;;;;;;;;;109238;1252;59033;-80
2023/10/10 14:45:24;;;;;;;;;;;;;;;;;;109142;1254;58979;-80
2023/10/10 14:47:51;;;;;;;;;;;;;;;;;;109154;1252;61952;-80
2023/10/10 14:50:23;;;;;;;;;;;;;;;;;;109208;1252;59285;-81
2023/10/10 14:52:49;;;;;;;;;;;;;;;;;;109143;1253;59452;-80
2023/10/10 14:55:25;;;;;;;;;;;;;;;;;;109201;1252;60114;-80
2023/10/10 14:57:54;;;;;;;;;;;;;;;;;;109192;1252;59000;-80
2023/10/10 15:00:21;;;;;;;;;;;;;;;;;;109213;1251;63306;-80
2023/10/10 15:02:48;;;;;;;;;;;;;;;;;;109358;1253;59385;-80
2023/10/10 15:05:15;;;;;;;;;;;;;;;;;;109240;1253;59092;-80
2023/10/10 15:07:43;;;;;;;;;;;;;;;;;;109208;1252;59091;-80
2023/10/10 15:10:10;;;;;;;;;;;;;;;;;;109247;1252;59584;-80
2023/10/10 15:12:37;;;;;;;;;;;;;;;;;;109267;1252;60385;-80
2023/10/10 15:15:04;;;;;;;;;;;;;;;;;;109233;1252;59075;-80
2023/10/10 15:17:31;;;;;;;;;;;;;;;;;;109256;1252;59647;-80
2023/10/10 15:19:58;;;;;;;;;;;;;;;;;;109239;1252;59565;-80
2023/10/10 15:22:25;;;;;;;;;;;;;;;;;;109266;1252;58879;-80
2023/10/10 15:24:52;;;;;;;;;;;;;;;;;;109225;1252;61770;-80
2023/10/10 15:27:19;;;;;;;;;;;;;;;;;;109265;1252;59134;-80
2023/10/10 15:29:45;;;;;;;;;;;;;;;;;;109211;1253;59583;-80
2023/10/10 15:32:15;;;;;;;;;;;;;;;;;;109193;1252;59726;-80
2023/10/10 15:34:41;;;;;;;;;;;;;;;;;;109280;1252;59248;-79
2023/10/10 15:37:14;;;;;;;;;;;;;;;;;;109266;1252;63104;-80
2023/10/10 15:39:41;;;;;;;;;;;;;;;;;;109272;1252;59078;-80
2023/10/10 15:42:07;;;;;;;;;;;;;;;;;;109235;1252;60592;-80
2023/10/10 15:44:34;;;;;;;;;;;;;;;;;;109228;1252;59038;-80
2023/10/10 15:47:00;;;;;;;;;;;;;;;;;;109298;1252;58983;-80
2023/10/10 15:49:27;;;;;;;;;;;;;;;;;;109275;1253;58972;-80
2023/10/10 15:51:53;;;;;;;;;;;;;;;;;;109228;1252;59098;-80
2023/10/10 15:54:21;;;;;;;;;;;;;;;;;;109253;1252;59552;-80
2023/10/10 15:56:47;;;;;;;;;;;;;;;;;;109275;1252;59515;-80
2023/10/10 15:59:17;;;;;;;;;;;;;;;;;;109293;1252;59673;-80
2023/10/10 16:01:46;;;;;;;;;;;;;;;;;;109241;1252;60806;-80
2023/10/10 16:04:13;;;;;;;;;;;;;;;;;;109216;1253;59643;-79
2023/10/10 16:06:40;;;;;;;;;;;;;;;;;;109184;1252;59764;-80
2023/10/10 16:11:36;;;;;;;;;;;;;;;;;;109274;1252;59418;-80
2023/10/10 16:14:11;;;;;;;;;;;;;;;;;;109204;1252;60141;-80
2023/10/10 16:16:37;;;;;;;;;;;;;;;;;;109292;1252;59117;-80
2023/10/10 16:19:04;;;;;;;;;;;;;;;;;;109300;1252;59037;-80
2023/10/10 16:21:31;;;;;;;;;;;;;;;;;;109252;1252;58991;-80
2023/10/10 16:23:58;;;;;;;;;;;;;;;;;;109250;1252;59849;-80
2023/10/10 16:26:24;;;;;;;;;;;;;;;;;;109250;1252;59667;-80
2023/10/10 16:28:50;;;;;;;;;;;;;;;;;;109270;1252;59006;-80
2023/10/10 16:31:17;;;;;;;;;;;;;;;;;;109235;1252;59721;-80
2023/10/10 16:33:43;;;;;;;;;;;;;;;;;;109225;1252;59088;-80
2023/10/10 16:36:12;;;;;;;;;;;;;;;;;;109251;1252;58988;-80
2023/10/10 16:38:40;;;;;;;;;;;;;;;;;;109227;1254;62731;-80
2023/10/10 16:41:09;;;;;;;;;;;;;;;;;;109226;1254;59040;-80
2023/10/10 16:43:37;;;;;;;;;;;;;;;;;;109185;1253;59010;-80
2023/10/10 16:46:03;;;;;;;;;;;;;;;;;;109285;1251;59710;-80
2023/10/10 16:48:31;;;;;;;;;;;;;;;;;;109461;1251;58974;-79
2023/10/10 16:51:01;;;;;;;;;;;;;;;;;;109444;1251;62020;-79
2023/10/10 16:53:28;;;;;;;;;;;;;;;;;;109407;1251;59007;-80
2023/10/10 16:55:54;;;;;;;;;;;;;;;;;;109377;1251;59630;-80
2023/10/10 16:58:20;;;;;;;;;;;;;;;;;;109409;1251;59630;-80
2023/10/10 17:00:48;;;;;;;;;;;;;;;;;;109409;1251;58992;-80
2023/10/10 17:03:14;;;;;;;;;;;;;;;;;;109447;1251;61706;-80
2023/10/10 17:05:41;;;;;;;;;;;;;;;;;;109197;1253;59473;-80
2023/10/10 17:08:11;;;;;;;;;;;;;;;;;;109219;1254;60554;-80
2023/10/10 17:10:37;;;;;;;;;;;;;;;;;;109222;1253;58955;-80
2023/10/10 17:13:04;;;;;;;;;;;;;;;;;;109218;1254;58996;-80
2023/10/10 17:15:30;;;;;;;;;;;;;;;;;;109222;1253;61896;-80
2023/10/10 17:17:57;;;;;;;;;;;;;;;;;;109216;1254;59660;-80
2023/10/10 17:20:24;;;;;;;;;;;;;;;;;;109180;1255;59726;-80
2023/10/10 17:22:51;;;;;;;;;;;;;;;;;;109210;1252;59882;-81
2023/10/10 17:25:17;;;;;;;;;;;;;;;;;;109151;1252;59138;-80
2023/10/10 17:27:44;;;;;;;;;;;;;;;;;;109338;1252;61589;-80
2023/10/10 17:30:14;;;;;;;;;;;;;;;;;;109261;1252;58994;-80
2023/10/10 17:32:42;;;;;;;;;;;;;;;;;;109270;1252;59381;-80
2023/10/10 17:35:08;;;;;;;;;;;;;;;;;;109222;1253;59117;-80
2023/10/10 17:37:35;;;;;;;;;;;;;;;;;;109290;1252;59052;-80
2023/10/10 17:40:02;;;;;;;;;;;;;;;;;;109235;1252;60601;-80
2023/10/10 17:42:29;;;;;;;;;;;;;;;;;;109254;1253;59184;-80
2023/10/10 17:44:57;;;;;;;;;;;;;;;;;;109242;1252;60611;-79
2023/10/10 17:47:27;;;;;;;;;;;;;;;;;;109356;1251;59273;-79
2023/10/10 17:49:54;;;;;;;;;;;;;;;;;;109404;1251;59532;-80
2023/10/10 17:52:23;;;;;;;;;;;;;;;;;;109377;1251;61964;-79
2023/10/10 17:54:50;;;;;;;;;;;;;;;;;;109444;1251;58968;-79
2023/10/10 17:57:22;;;;;;;;;;;;;;;;;;109404;1251;59079;-80
2023/10/10 17:59:49;;;;;;;;;;;;;;;;;;109398;1251;59516;-79
2023/10/10 18:02:15;;;;;;;;;;;;;;;;;;109385;1251;59647;-80
2023/10/10 18:04:42;;;;;;;;;;;;;;;;;;109247;1252;62597;-79
2023/10/10 18:07:10;;;;;;;;;;;;;;;;;;109259;1253;59825;-80
2023/10/10 18:09:37;;;;;;;;;;;;;;;;;;109236;1252;59312;-79
2023/10/10 18:12:03;;;;;;;;;;;;;;;;;;109233;1252;59508;-79
2023/10/10 18:14:30;;;;;;;;;;;;;;;;;;109189;1253;59386;-80
2023/10/10 18:16:56;;;;;;;;;;;;;;;;;;109207;1252;59739;-80
2023/10/10 18:19:25;;;;;;;;;;;;;;;;;;109318;1252;59476;-80
2023/10/10 18:21:52;;;;;;;;;;;;;;;;;;109203;1252;58998;-80
2023/10/10 18:24:27;;;;;;;;;;;;;;;;;;109194;1253;59058;-80
2023/10/10 18:26:54;;;;;;;;;;;;;;;;;;109275;1252;59100;-80
2023/10/10 18:29:21;;;;;;;;;;;;;;;;;;109248;1253;62560;-79
2023/10/10 18:31:47;;;;;;;;;;;;;;;;;;109240;1253;59591;-80
2023/10/10 18:34:14;;;;;;;;;;;;;;;;;;109179;1253;58998;-79
2023/10/10 18:36:41;;;;;;;;;;;;;;;;;;109234;1253;59092;-80
2023/10/10 18:39:15;;;;;;;;;;;;;;;;;;109231;1253;59597;-79
2023/10/10 18:41:41;;;;;;;;;;;;;;;;;;109240;1252;60809;-79
2023/10/10 18:44:08;;;;;;;;;;;;;;;;;;109202;1252;59275;-80
2023/10/10 18:46:34;;;;;;;;;;;;;;;;;;109323;1251;59589;-80
2023/10/10 18:49:00;;;;;;;;;;;;;;;;;;109356;1251;59533;-80
2023/10/10 18:51:27;;;;;;;;;;;;;;;;;;109354;1251;59157;-80
2023/10/10 18:53:54;;;;;;;;;;;;;;;;;;109366;1251;59021;-80
2023/10/10 18:56:21;;;;;;;;;;;;;;;;;;109378;1251;59558;-80
2023/10/10 18:58:50;;;;;;;;;;;;;;;;;;109361;1251;59752;-79
2023/10/10 19:01:17;;;;;;;;;;;;;;;;;;109346;1253;59563;-80
2023/10/10 19:03:47;;;;;;;;;;;;;;;;;;109380;1251;59009;-80
2023/10/10 19:06:13;;;;;;;;;;;;;;;;;;109208;1253;61276;-80
2023/10/10 19:08:43;;;;;;;;;;;;;;;;;;109236;1252;59115;-80
2023/10/10 19:11:10;;;;;;;;;;;;;;;;;;109217;1253;60742;-80